sensor_id;sensor_type;location;lat;lon;timestamp;temperature;humidity
7646;DHT22;3864;48.180;14.178;2022-07-29T00:01:22;17.70;99.90
7646;DHT22;3864;48.180;14.178;2022-07-29T00:03:49;17.60;99.90
7646;DHT22;3864;48.180;14.178;2022-07-29T00:06:17;17.50;99.90
7646;DHT22;3864;48.180;14.178;2022-07-29T00:08:44;17.50;99.90
7646;DHT22;3864;48.180;14.178;2022-07-29T00:11:11;17.50;99.90
7646;DHT22;3864;48.180;14.178;2022-07-29T00:13:39;17.50;99.90
7646;DHT22;3864;48.180;14.178;2022-07-29T00:16:06;17.50;99.90
7646;DHT22;3864;48.180;14.178;2022-07-29T00:18:35;17.50;99.90
7646;DHT22;3864;48.180;14.178;2022-07-29T00:21:02;17.40;99.90
7646;DHT22;3864;48.180;14.178;2022-07-29T00:23:30;17.40;99.90
7646;DHT22;3864;48.180;14.178;2022-07-29T00:25:57;17.30;99.90
7646;DHT22;3864;48.180;14.178;2022-07-29T00:28:24;17.30;99.90
7646;DHT22;3864;48.180;14.178;2022-07-29T00:30:52;17.30;99.90
7646;DHT22;3864;48.180;14.178;2022-07-29T00:33:19;17.20;99.90
7646;DHT22;3864;48.180;14.178;2022-07-29T00:35:49;17.10;99.90
7646;DHT22;3864;48.180;14.178;2022-07-29T00:38:17;17.10;99.90
7646;DHT22;3864;48.180;14.178;2022-07-29T00:40:46;17.00;99.90
7646;DHT22;3864;48.180;14.178;2022-07-29T00:43:14;17.00;99.90
7646;DHT22;3864;48.180;14.178;2022-07-29T00:45:41;16.90;99.90
7646;DHT22;3864;48.180;14.178;2022-07-29T00:48:09;16.90;99.90
7646;DHT22;3864;48.180;14.178;2022-07-29T00:50:37;16.80;99.90
7646;DHT22;3864;48.180;14.178;2022-07-29T00:53:07;16.80;99.90
7646;DHT22;3864;48.180;14.178;2022-07-29T00:55:35;16.70;99.90
7646;DHT22;3864;48.180;14.178;2022-07-29T00:58:03;16.70;99.90
7646;DHT22;3864;48.180;14.178;2022-07-29T01:00:30;16.80;99.90
7646;DHT22;3864;48.180;14.178;2022-07-29T01:02:58;16.80;99.90
7646;DHT22;3864;48.180;14.178;2022-07-29T01:05:27;16.90;99.90
7646;DHT22;3864;48.180;14.178;2022-07-29T01:07:55;16.90;99.90
7646;DHT22;3864;48.180;14.178;2022-07-29T01:10:26;16.90;99.90
7646;DHT22;3864;48.180;14.178;2022-07-29T01:12:56;16.90;99.90
7646;DHT22;3864;48.180;14.178;2022-07-29T01:15:24;16.90;99.90
7646;DHT22;3864;48.180;14.178;2022-07-29T01:17:57;16.90;99.90
7646;DHT22;3864;48.180;14.178;2022-07-29T01:20:34;17.00;99.90
7646;DHT22;3864;48.180;14.178;2022-07-29T01:29:07;17.40;99.90
7646;DHT22;3864;48.180;14.178;2022-07-29T01:31:42;17.50;99.90
7646;DHT22;3864;48.180;14.178;2022-07-29T01:34:15;17.60;99.90
7646;DHT22;3864;48.180;14.178;2022-07-29T01:36:48;17.60;99.90
7646;DHT22;3864;48.180;14.178;2022-07-29T01:39:19;17.70;99.90
7646;DHT22;3864;48.180;14.178;2022-07-29T01:41:59;17.90;99.90
7646;DHT22;3864;48.180;14.178;2022-07-29T01:44:35;18.00;99.90
7646;DHT22;3864;48.180;14.178;2022-07-29T01:47:09;18.00;99.90
7646;DHT22;3864;48.180;14.178;2022-07-29T01:49:43;18.10;99.90
7646;DHT22;3864;48.180;14.178;2022-07-29T01:52:19;18.20;99.90
7646;DHT22;3864;48.180;14.178;2022-07-29T01:54:52;18.30;99.90
7646;DHT22;3864;48.180;14.178;2022-07-29T01:57:26;18.30;99.90
7646;DHT22;3864;48.180;14.178;2022-07-29T01:59:56;18.40;99.90
7646;DHT22;3864;48.180;14.178;2022-07-29T02:02:25;18.40;99.90
7646;DHT22;3864;48.180;14.178;2022-07-29T02:04:53;18.40;99.90
7646;DHT22;3864;48.180;14.178;2022-07-29T02:07:23;18.30;99.90
7646;DHT22;3864;48.180;14.178;2022-07-29T02:09:53;18.20;99.90
7646;DHT22;3864;48.180;14.178;2022-07-29T02:12:22;18.20;99.90
7646;DHT22;3864;48.180;14.178;2022-07-29T02:14:53;18.20;99.90
7646;DHT22;3864;48.180;14.178;2022-07-29T02:17:26;18.20;99.90
7646;DHT22;3864;48.180;14.178;2022-07-29T02:19:57;18.20;99.90
7646;DHT22;3864;48.180;14.178;2022-07-29T02:22:28;18.20;99.90
7646;DHT22;3864;48.180;14.178;2022-07-29T02:24:57;18.10;99.90
7646;DHT22;3864;48.180;14.178;2022-07-29T02:27:26;18.00;99.90
7646;DHT22;3864;48.180;14.178;2022-07-29T02:29:55;18.00;99.90
7646;DHT22;3864;48.180;14.178;2022-07-29T02:32:27;18.10;99.90
7646;DHT22;3864;48.180;14.178;2022-07-29T02:34:56;18.20;99.90
7646;DHT22;3864;48.180;14.178;2022-07-29T02:37:24;18.20;99.90
7646;DHT22;3864;48.180;14.178;2022-07-29T02:39:53;18.20;99.90
7646;DHT22;3864;48.180;14.178;2022-07-29T02:42:23;18.20;99.90
7646;DHT22;3864;48.180;14.178;2022-07-29T02:44:51;18.10;99.90
7646;DHT22;3864;48.180;14.178;2022-07-29T02:47:21;18.10;99.90
7646;DHT22;3864;48.180;14.178;2022-07-29T02:49:57;18.00;99.90
7646;DHT22;3864;48.180;14.178;2022-07-29T02:52:30;17.90;99.90
7646;DHT22;3864;48.180;14.178;2022-07-29T02:55:01;17.90;99.90
7646;DHT22;3864;48.180;14.178;2022-07-29T02:57:32;17.90;99.90
7646;DHT22;3864;48.180;14.178;2022-07-29T03:00:04;17.80;99.90
7646;DHT22;3864;48.180;14.178;2022-07-29T03:02:33;17.90;99.90
7646;DHT22;3864;48.180;14.178;2022-07-29T03:05:04;17.90;99.90
7646;DHT22;3864;48.180;14.178;2022-07-29T03:07:34;17.90;99.90
7646;DHT22;3864;48.180;14.178;2022-07-29T03:10:03;17.90;99.90
7646;DHT22;3864;48.180;14.178;2022-07-29T03:12:31;17.80;99.90
7646;DHT22;3864;48.180;14.178;2022-07-29T03:14:59;17.70;99.90
7646;DHT22;3864;48.180;14.178;2022-07-29T03:17:27;17.70;99.90
7646;DHT22;3864;48.180;14.178;2022-07-29T03:19:57;17.60;99.90
7646;DHT22;3864;48.180;14.178;2022-07-29T03:22:27;17.60;99.90
7646;DHT22;3864;48.180;14.178;2022-07-29T03:24:54;17.60;99.90
7646;DHT22;3864;48.180;14.178;2022-07-29T03:27:22;17.60;99.90
7646;DHT22;3864;48.180;14.178;2022-07-29T03:29:49;17.60;99.90
7646;DHT22;3864;48.180;14.178;2022-07-29T03:32:16;17.60;99.90
7646;DHT22;3864;48.180;14.178;2022-07-29T03:34:44;17.60;99.90
7646;DHT22;3864;48.180;14.178;2022-07-29T03:37:11;17.60;99.90
7646;DHT22;3864;48.180;14.178;2022-07-29T03:39:41;17.60;99.90
7646;DHT22;3864;48.180;14.178;2022-07-29T03:42:11;17.60;99.90
7646;DHT22;3864;48.180;14.178;2022-07-29T03:44:42;17.50;99.90
7646;DHT22;3864;48.180;14.178;2022-07-29T03:47:11;17.50;99.90
7646;DHT22;3864;48.180;14.178;2022-07-29T03:49:41;17.40;99.90
7646;DHT22;3864;48.180;14.178;2022-07-29T03:52:09;17.30;99.90
7646;DHT22;3864;48.180;14.178;2022-07-29T03:54:36;17.30;99.90
7646;DHT22;3864;48.180;14.178;2022-07-29T03:57:06;17.30;99.90
7646;DHT22;3864;48.180;14.178;2022-07-29T03:59:36;17.30;99.90
7646;DHT22;3864;48.180;14.178;2022-07-29T04:02:05;17.30;99.90
7646;DHT22;3864;48.180;14.178;2022-07-29T04:04:35;17.40;99.90
7646;DHT22;3864;48.180;14.178;2022-07-29T04:07:03;17.50;99.90
7646;DHT22;3864;48.180;14.178;2022-07-29T04:09:31;17.60;99.90
7646;DHT22;3864;48.180;14.178;2022-07-29T04:11:58;17.60;99.90
7646;DHT22;3864;48.180;14.178;2022-07-29T04:14:28;17.70;99.90
7646;DHT22;3864;48.180;14.178;2022-07-29T04:16:55;17.80;99.90
7646;DHT22;3864;48.180;14.178;2022-07-29T04:19:22;17.90;99.90
7646;DHT22;3864;48.180;14.178;2022-07-29T04:21:50;18.00;99.90
7646;DHT22;3864;48.180;14.178;2022-07-29T04:24:17;18.10;99.90
7646;DHT22;3864;48.180;14.178;2022-07-29T04:26:45;18.20;99.90
7646;DHT22;3864;48.180;14.178;2022-07-29T04:29:13;18.20;99.90
7646;DHT22;3864;48.180;14.178;2022-07-29T04:31:42;18.30;99.90
7646;DHT22;3864;48.180;14.178;2022-07-29T04:34:11;18.40;99.90
7646;DHT22;3864;48.180;14.178;2022-07-29T04:36:38;18.50;99.90
7646;DHT22;3864;48.180;14.178;2022-07-29T04:39:06;18.40;99.90
7646;DHT22;3864;48.180;14.178;2022-07-29T04:41:34;18.40;99.90
7646;DHT22;3864;48.180;14.178;2022-07-29T04:44:01;18.50;99.90
7646;DHT22;3864;48.180;14.178;2022-07-29T04:46:31;18.50;99.90
7646;DHT22;3864;48.180;14.178;2022-07-29T04:49:00;18.40;99.90
7646;DHT22;3864;48.180;14.178;2022-07-29T04:51:27;18.50;99.90
7646;DHT22;3864;48.180;14.178;2022-07-29T04:53:55;18.40;99.90
7646;DHT22;3864;48.180;14.178;2022-07-29T04:56:22;18.30;99.90
7646;DHT22;3864;48.180;14.178;2022-07-29T04:58:50;18.40;99.90
7646;DHT22;3864;48.180;14.178;2022-07-29T05:01:18;18.40;99.90
7646;DHT22;3864;48.180;14.178;2022-07-29T05:03:45;18.30;99.90
7646;DHT22;3864;48.180;14.178;2022-07-29T05:06:14;18.40;99.90
7646;DHT22;3864;48.180;14.178;2022-07-29T05:08:41;18.40;99.90
7646;DHT22;3864;48.180;14.178;2022-07-29T05:11:09;18.50;99.90
7646;DHT22;3864;48.180;14.178;2022-07-29T05:13:36;18.70;99.90
7646;DHT22;3864;48.180;14.178;2022-07-29T05:16:04;18.80;99.90
7646;DHT22;3864;48.180;14.178;2022-07-29T05:18:31;18.90;99.90
7646;DHT22;3864;48.180;14.178;2022-07-29T05:20:58;19.10;99.90
7646;DHT22;3864;48.180;14.178;2022-07-29T05:23:28;19.30;99.90
7646;DHT22;3864;48.180;14.178;2022-07-29T05:25:55;19.50;99.90
7646;DHT22;3864;48.180;14.178;2022-07-29T05:28:22;19.60;99.90
7646;DHT22;3864;48.180;14.178;2022-07-29T05:30:50;19.70;99.90
7646;DHT22;3864;48.180;14.178;2022-07-29T05:33:17;19.80;99.90
7646;DHT22;3864;48.180;14.178;2022-07-29T05:35:45;20.00;99.90
7646;DHT22;3864;48.180;14.178;2022-07-29T05:38:12;20.10;99.90
7646;DHT22;3864;48.180;14.178;2022-07-29T05:40:41;20.30;99.90
7646;DHT22;3864;48.180;14.178;2022-07-29T05:43:08;20.50;99.90
7646;DHT22;3864;48.180;14.178;2022-07-29T05:45:36;20.60;99.90
7646;DHT22;3864;48.180;14.178;2022-07-29T05:48:05;20.60;99.90
7646;DHT22;3864;48.180;14.178;2022-07-29T05:50:33;20.60;99.90
7646;DHT22;3864;48.180;14.178;2022-07-29T05:53:00;20.70;99.90
7646;DHT22;3864;48.180;14.178;2022-07-29T05:55:27;20.80;99.90
7646;DHT22;3864;48.180;14.178;2022-07-29T05:57:56;20.90;99.90
7646;DHT22;3864;48.180;14.178;2022-07-29T06:00:24;21.10;99.90
7646;DHT22;3864;48.180;14.178;2022-07-29T06:02:52;21.10;99.90
7646;DHT22;3864;48.180;14.178;2022-07-29T06:05:20;21.30;99.90
7646;DHT22;3864;48.180;14.178;2022-07-29T06:07:47;21.40;99.90
7646;DHT22;3864;48.180;14.178;2022-07-29T06:10:15;21.50;99.90
7646;DHT22;3864;48.180;14.178;2022-07-29T06:12:42;21.70;99.90
7646;DHT22;3864;48.180;14.178;2022-07-29T06:15:10;21.80;99.90
7646;DHT22;3864;48.180;14.178;2022-07-29T06:17:37;21.90;99.90
7646;DHT22;3864;48.180;14.178;2022-07-29T06:20:08;22.10;99.90
7646;DHT22;3864;48.180;14.178;2022-07-29T06:22:35;22.40;99.90
7646;DHT22;3864;48.180;14.178;2022-07-29T06:25:03;22.60;99.90
7646;DHT22;3864;48.180;14.178;2022-07-29T06:27:30;22.90;99.90
7646;DHT22;3864;48.180;14.178;2022-07-29T06:29:58;23.20;99.90
7646;DHT22;3864;48.180;14.178;2022-07-29T06:32:25;23.40;99.90
7646;DHT22;3864;48.180;14.178;2022-07-29T06:34:52;23.60;99.90
7646;DHT22;3864;48.180;14.178;2022-07-29T06:37:22;23.70;99.90
7646;DHT22;3864;48.180;14.178;2022-07-29T06:39:49;23.60;99.90
7646;DHT22;3864;48.180;14.178;2022-07-29T06:42:37;23.40;99.90
7646;DHT22;3864;48.180;14.178;2022-07-29T06:45:05;23.30;99.90
7646;DHT22;3864;48.180;14.178;2022-07-29T06:47:32;23.10;99.90
7646;DHT22;3864;48.180;14.178;2022-07-29T06:49:59;23.00;99.90
7646;DHT22;3864;48.180;14.178;2022-07-29T06:52:28;23.00;99.90
7646;DHT22;3864;48.180;14.178;2022-07-29T06:54:55;22.90;99.90
7646;DHT22;3864;48.180;14.178;2022-07-29T06:57:23;22.90;99.90
7646;DHT22;3864;48.180;14.178;2022-07-29T06:59:50;22.90;99.90
7646;DHT22;3864;48.180;14.178;2022-07-29T07:02:17;22.70;99.90
7646;DHT22;3864;48.180;14.178;2022-07-29T07:04:45;22.50;99.90
7646;DHT22;3864;48.180;14.178;2022-07-29T07:07:12;22.30;99.90
7646;DHT22;3864;48.180;14.178;2022-07-29T07:09:41;22.10;99.90
7646;DHT22;3864;48.180;14.178;2022-07-29T07:12:09;21.90;99.90
7646;DHT22;3864;48.180;14.178;2022-07-29T07:14:36;21.70;99.90
7646;DHT22;3864;48.180;14.178;2022-07-29T07:17:05;21.70;99.90
7646;DHT22;3864;48.180;14.178;2022-07-29T07:19:33;21.50;99.90
7646;DHT22;3864;48.180;14.178;2022-07-29T07:22:00;21.40;99.90
7646;DHT22;3864;48.180;14.178;2022-07-29T07:24:28;21.40;99.90
7646;DHT22;3864;48.180;14.178;2022-07-29T07:26:57;21.30;99.90
7646;DHT22;3864;48.180;14.178;2022-07-29T07:29:24;21.20;99.90
7646;DHT22;3864;48.180;14.178;2022-07-29T07:31:51;21.20;99.90
7646;DHT22;3864;48.180;14.178;2022-07-29T07:34:19;21.20;99.90
7646;DHT22;3864;48.180;14.178;2022-07-29T07:36:47;21.20;99.90
7646;DHT22;3864;48.180;14.178;2022-07-29T07:39:14;21.20;99.90
7646;DHT22;3864;48.180;14.178;2022-07-29T07:41:41;21.30;99.90
7646;DHT22;3864;48.180;14.178;2022-07-29T07:44:11;21.30;99.90
7646;DHT22;3864;48.180;14.178;2022-07-29T07:46:38;21.30;99.90
7646;DHT22;3864;48.180;14.178;2022-07-29T07:49:05;21.40;99.90
7646;DHT22;3864;48.180;14.178;2022-07-29T07:51:33;21.60;99.90
7646;DHT22;3864;48.180;14.178;2022-07-29T07:54:00;21.80;99.90
7646;DHT22;3864;48.180;14.178;2022-07-29T07:56:28;21.90;99.90
7646;DHT22;3864;48.180;14.178;2022-07-29T07:58:55;22.20;99.90
7646;DHT22;3864;48.180;14.178;2022-07-29T08:01:24;22.40;99.90
7646;DHT22;3864;48.180;14.178;2022-07-29T08:03:51;22.40;99.90
7646;DHT22;3864;48.180;14.178;2022-07-29T08:06:19;22.40;99.90
7646;DHT22;3864;48.180;14.178;2022-07-29T08:08:46;22.40;99.90
7646;DHT22;3864;48.180;14.178;2022-07-29T08:11:13;22.50;99.90
7646;DHT22;3864;48.180;14.178;2022-07-29T08:13:41;22.40;99.90
7646;DHT22;3864;48.180;14.178;2022-07-29T08:16:08;22.40;99.90
7646;DHT22;3864;48.180;14.178;2022-07-29T08:18:41;22.50;99.90
7646;DHT22;3864;48.180;14.178;2022-07-29T08:21:09;22.40;99.90
7646;DHT22;3864;48.180;14.178;2022-07-29T08:23:36;22.40;99.90
7646;DHT22;3864;48.180;14.178;2022-07-29T08:26:11;22.60;99.90
7646;DHT22;3864;48.180;14.178;2022-07-29T08:28:41;22.70;99.90
7646;DHT22;3864;48.180;14.178;2022-07-29T08:31:11;22.90;99.90
7646;DHT22;3864;48.180;14.178;2022-07-29T08:33:41;23.10;99.90
7646;DHT22;3864;48.180;14.178;2022-07-29T08:36:08;23.30;99.90
7646;DHT22;3864;48.180;14.178;2022-07-29T08:38:35;23.40;99.90
7646;DHT22;3864;48.180;14.178;2022-07-29T08:41:03;23.40;99.90
7646;DHT22;3864;48.180;14.178;2022-07-29T08:43:31;23.30;99.90
7646;DHT22;3864;48.180;14.178;2022-07-29T08:46:02;23.60;99.90
7646;DHT22;3864;48.180;14.178;2022-07-29T08:48:31;23.80;99.90
7646;DHT22;3864;48.180;14.178;2022-07-29T08:51:01;24.20;99.90
7646;DHT22;3864;48.180;14.178;2022-07-29T08:53:28;24.50;99.90
7646;DHT22;3864;48.180;14.178;2022-07-29T08:55:57;24.60;99.90
7646;DHT22;3864;48.180;14.178;2022-07-29T08:58:25;24.80;99.90
7646;DHT22;3864;48.180;14.178;2022-07-29T09:00:54;25.00;99.90
7646;DHT22;3864;48.180;14.178;2022-07-29T09:03:23;25.00;99.90
7646;DHT22;3864;48.180;14.178;2022-07-29T09:05:53;25.10;99.90
7646;DHT22;3864;48.180;14.178;2022-07-29T09:08:21;25.10;99.90
7646;DHT22;3864;48.180;14.178;2022-07-29T09:10:48;25.30;99.90
7646;DHT22;3864;48.180;14.178;2022-07-29T09:13:16;25.50;99.90
7646;DHT22;3864;48.180;14.178;2022-07-29T09:15:44;25.60;99.90
7646;DHT22;3864;48.180;14.178;2022-07-29T09:18:11;25.70;99.90
7646;DHT22;3864;48.180;14.178;2022-07-29T09:20:39;25.70;99.90
7646;DHT22;3864;48.180;14.178;2022-07-29T09:23:33;25.90;99.90
7646;DHT22;3864;48.180;14.178;2022-07-29T09:26:05;26.10;99.90
7646;DHT22;3864;48.180;14.178;2022-07-29T09:28:32;26.30;99.90
7646;DHT22;3864;48.180;14.178;2022-07-29T09:30:59;26.20;99.90
7646;DHT22;3864;48.180;14.178;2022-07-29T09:33:31;26.40;99.90
7646;DHT22;3864;48.180;14.178;2022-07-29T09:36:03;26.60;99.90
7646;DHT22;3864;48.180;14.178;2022-07-29T09:38:30;26.80;99.90
7646;DHT22;3864;48.180;14.178;2022-07-29T09:41:01;27.10;99.90
7646;DHT22;3864;48.180;14.178;2022-07-29T09:43:29;27.10;99.90
7646;DHT22;3864;48.180;14.178;2022-07-29T09:45:59;27.00;99.90
7646;DHT22;3864;48.180;14.178;2022-07-29T09:48:36;27.10;99.90
7646;DHT22;3864;48.180;14.178;2022-07-29T09:51:04;27.20;99.80
7646;DHT22;3864;48.180;14.178;2022-07-29T09:53:33;27.20;99.90
7646;DHT22;3864;48.180;14.178;2022-07-29T09:56:03;27.20;99.60
7646;DHT22;3864;48.180;14.178;2022-07-29T09:58:31;27.40;99.90
7646;DHT22;3864;48.180;14.178;2022-07-29T10:00:59;27.50;99.90
7646;DHT22;3864;48.180;14.178;2022-07-29T10:03:27;27.70;99.90
7646;DHT22;3864;48.180;14.178;2022-07-29T10:06:05;27.90;99.90
7646;DHT22;3864;48.180;14.178;2022-07-29T10:08:34;28.80;98.70
7646;DHT22;3864;48.180;14.178;2022-07-29T10:11:11;30.30;97.00
7646;DHT22;3864;48.180;14.178;2022-07-29T10:13:41;31.50;95.50
7646;DHT22;3864;48.180;14.178;2022-07-29T10:16:08;31.50;94.20
7646;DHT22;3864;48.180;14.178;2022-07-29T10:18:38;31.30;94.80
7646;DHT22;3864;48.180;14.178;2022-07-29T10:21:05;31.00;94.40
7646;DHT22;3864;48.180;14.178;2022-07-29T10:23:34;31.50;93.60
7646;DHT22;3864;48.180;14.178;2022-07-29T10:26:02;32.90;92.70
7646;DHT22;3864;48.180;14.178;2022-07-29T10:28:32;33.80;91.00
7646;DHT22;3864;48.180;14.178;2022-07-29T10:31:02;34.80;89.40
7646;DHT22;3864;48.180;14.178;2022-07-29T10:33:43;35.30;87.80
7646;DHT22;3864;48.180;14.178;2022-07-29T10:36:26;35.20;86.60
7646;DHT22;3864;48.180;14.178;2022-07-29T10:39:00;35.40;85.90
7646;DHT22;3864;48.180;14.178;2022-07-29T10:41:39;35.70;85.90
7646;DHT22;3864;48.180;14.178;2022-07-29T10:44:28;36.70;85.20
7646;DHT22;3864;48.180;14.178;2022-07-29T10:46:56;36.90;82.20
7646;DHT22;3864;48.180;14.178;2022-07-29T10:49:24;36.90;84.20
7646;DHT22;3864;48.180;14.178;2022-07-29T10:51:53;36.90;82.40
7646;DHT22;3864;48.180;14.178;2022-07-29T10:54:44;37.10;83.20
7646;DHT22;3864;48.180;14.178;2022-07-29T10:57:21;37.20;80.20
7646;DHT22;3864;48.180;14.178;2022-07-29T11:02:57;37.20;82.20
7646;DHT22;3864;48.180;14.178;2022-07-29T11:05:26;36.10;81.60
7646;DHT22;3864;48.180;14.178;2022-07-29T11:08:18;35.00;82.20
7646;DHT22;3864;48.180;14.178;2022-07-29T11:10:49;34.90;84.90
7646;DHT22;3864;48.180;14.178;2022-07-29T11:13:51;35.00;84.20
7646;DHT22;3864;48.180;14.178;2022-07-29T11:16:22;35.40;83.20
7646;DHT22;3864;48.180;14.178;2022-07-29T11:19:19;35.90;82.40
7646;DHT22;3864;48.180;14.178;2022-07-29T11:21:47;36.40;81.20
7646;DHT22;3864;48.180;14.178;2022-07-29T11:24:17;37.10;80.90
7646;DHT22;3864;48.180;14.178;2022-07-29T11:27:06;37.30;80.60
7646;DHT22;3864;48.180;14.178;2022-07-29T11:29:35;37.00;80.10
7646;DHT22;3864;48.180;14.178;2022-07-29T11:32:11;36.60;80.30
7646;DHT22;3864;48.180;14.178;2022-07-29T11:34:40;36.60;84.10
7646;DHT22;3864;48.180;14.178;2022-07-29T11:37:16;36.60;81.60
7646;DHT22;3864;48.180;14.178;2022-07-29T11:39:44;36.30;80.20
7646;DHT22;3864;48.180;14.178;2022-07-29T11:42:45;36.30;81.50
7646;DHT22;3864;48.180;14.178;2022-07-29T11:45:18;35.70;79.60
7646;DHT22;3864;48.180;14.178;2022-07-29T11:47:50;35.60;80.10
7646;DHT22;3864;48.180;14.178;2022-07-29T11:50:30;36.00;85.00
7646;DHT22;3864;48.180;14.178;2022-07-29T11:52:58;35.80;80.70
7646;DHT22;3864;48.180;14.178;2022-07-29T11:55:26;36.00;82.30
7646;DHT22;3864;48.180;14.178;2022-07-29T11:57:56;36.40;78.90
7646;DHT22;3864;48.180;14.178;2022-07-29T12:00:27;37.10;80.90
7646;DHT22;3864;48.180;14.178;2022-07-29T12:02:57;36.60;78.00
7646;DHT22;3864;48.180;14.178;2022-07-29T12:08:17;36.00;78.30
7646;DHT22;3864;48.180;14.178;2022-07-29T12:10:46;37.10;77.10
7646;DHT22;3864;48.180;14.178;2022-07-29T12:13:15;37.60;77.60
7646;DHT22;3864;48.180;14.178;2022-07-29T12:15:51;38.10;77.50
7646;DHT22;3864;48.180;14.178;2022-07-29T12:18:20;38.00;77.40
7646;DHT22;3864;48.180;14.178;2022-07-29T12:20:48;37.80;76.30
7646;DHT22;3864;48.180;14.178;2022-07-29T12:23:17;37.40;76.90
7646;DHT22;3864;48.180;14.178;2022-07-29T12:25:44;37.50;82.30
7646;DHT22;3864;48.180;14.178;2022-07-29T12:28:13;37.60;81.90
7646;DHT22;3864;48.180;14.178;2022-07-29T12:30:43;37.30;77.20
7646;DHT22;3864;48.180;14.178;2022-07-29T12:33:13;37.10;75.70
7646;DHT22;3864;48.180;14.178;2022-07-29T12:35:42;37.00;76.50
7646;DHT22;3864;48.180;14.178;2022-07-29T12:38:11;36.80;78.80
7646;DHT22;3864;48.180;14.178;2022-07-29T12:40:40;36.60;77.00
7646;DHT22;3864;48.180;14.178;2022-07-29T12:43:10;36.10;77.60
7646;DHT22;3864;48.180;14.178;2022-07-29T12:45:38;36.10;79.20
7646;DHT22;3864;48.180;14.178;2022-07-29T12:48:07;36.00;81.30
7646;DHT22;3864;48.180;14.178;2022-07-29T12:50:36;35.70;79.90
7646;DHT22;3864;48.180;14.178;2022-07-29T12:53:11;34.80;80.60
7646;DHT22;3864;48.180;14.178;2022-07-29T12:55:42;34.10;81.60
7646;DHT22;3864;48.180;14.178;2022-07-29T12:58:10;34.50;86.70
7646;DHT22;3864;48.180;14.178;2022-07-29T13:00:37;34.50;83.20
7646;DHT22;3864;48.180;14.178;2022-07-29T13:03:05;34.60;80.20
7646;DHT22;3864;48.180;14.178;2022-07-29T13:05:39;34.90;78.00
7646;DHT22;3864;48.180;14.178;2022-07-29T13:08:11;34.80;79.90
7646;DHT22;3864;48.180;14.178;2022-07-29T13:10:41;34.60;85.80
7646;DHT22;3864;48.180;14.178;2022-07-29T13:13:09;33.40;81.10
7646;DHT22;3864;48.180;14.178;2022-07-29T13:15:38;32.50;88.50
7646;DHT22;3864;48.180;14.178;2022-07-29T13:18:26;32.00;86.00
7646;DHT22;3864;48.180;14.178;2022-07-29T13:20:54;32.60;87.90
7646;DHT22;3864;48.180;14.178;2022-07-29T13:23:22;33.50;85.30
7646;DHT22;3864;48.180;14.178;2022-07-29T13:25:50;34.40;83.90
7646;DHT22;3864;48.180;14.178;2022-07-29T13:28:18;35.10;82.40
7646;DHT22;3864;48.180;14.178;2022-07-29T13:30:47;35.60;81.70
7646;DHT22;3864;48.180;14.178;2022-07-29T13:33:14;35.50;81.80
7646;DHT22;3864;48.180;14.178;2022-07-29T13:35:41;35.40;80.40
7646;DHT22;3864;48.180;14.178;2022-07-29T13:38:09;35.30;80.20
7646;DHT22;3864;48.180;14.178;2022-07-29T13:40:37;34.90;79.70
7646;DHT22;3864;48.180;14.178;2022-07-29T13:43:08;34.60;77.60
7646;DHT22;3864;48.180;14.178;2022-07-29T13:45:36;34.70;78.50
7646;DHT22;3864;48.180;14.178;2022-07-29T13:48:04;34.80;79.80
7646;DHT22;3864;48.180;14.178;2022-07-29T13:50:31;34.90;81.40
7646;DHT22;3864;48.180;14.178;2022-07-29T13:52:59;34.90;79.10
7646;DHT22;3864;48.180;14.178;2022-07-29T13:55:26;34.90;81.50
7646;DHT22;3864;48.180;14.178;2022-07-29T13:57:54;34.80;79.40
7646;DHT22;3864;48.180;14.178;2022-07-29T14:00:23;34.90;84.30
7646;DHT22;3864;48.180;14.178;2022-07-29T14:02:51;34.80;79.90
7646;DHT22;3864;48.180;14.178;2022-07-29T14:05:19;34.70;81.90
7646;DHT22;3864;48.180;14.178;2022-07-29T14:07:46;34.60;81.20
7646;DHT22;3864;48.180;14.178;2022-07-29T14:10:14;35.00;81.80
7646;DHT22;3864;48.180;14.178;2022-07-29T14:12:41;35.20;81.00
7646;DHT22;3864;48.180;14.178;2022-07-29T14:15:09;35.50;85.60
7646;DHT22;3864;48.180;14.178;2022-07-29T14:17:37;35.20;80.90
7646;DHT22;3864;48.180;14.178;2022-07-29T14:20:05;35.20;85.30
7646;DHT22;3864;48.180;14.178;2022-07-29T14:22:33;35.20;84.50
7646;DHT22;3864;48.180;14.178;2022-07-29T14:25:00;34.80;81.10
7646;DHT22;3864;48.180;14.178;2022-07-29T14:27:28;34.70;79.60
7646;DHT22;3864;48.180;14.178;2022-07-29T14:29:55;34.70;80.50
7646;DHT22;3864;48.180;14.178;2022-07-29T14:32:22;34.40;80.30
7646;DHT22;3864;48.180;14.178;2022-07-29T14:34:51;34.60;84.70
7646;DHT22;3864;48.180;14.178;2022-07-29T14:37:18;34.60;79.00
7646;DHT22;3864;48.180;14.178;2022-07-29T14:39:46;34.40;79.10
7646;DHT22;3864;48.180;14.178;2022-07-29T14:42:13;34.50;81.70
7646;DHT22;3864;48.180;14.178;2022-07-29T14:44:41;34.00;79.70
7646;DHT22;3864;48.180;14.178;2022-07-29T14:47:08;33.50;85.70
7646;DHT22;3864;48.180;14.178;2022-07-29T14:49:36;33.20;87.00
7646;DHT22;3864;48.180;14.178;2022-07-29T14:52:05;33.00;81.50
7646;DHT22;3864;48.180;14.178;2022-07-29T14:54:32;33.40;83.20
7646;DHT22;3864;48.180;14.178;2022-07-29T14:57:00;33.60;85.70
7646;DHT22;3864;48.180;14.178;2022-07-29T14:59:27;34.00;85.80
7646;DHT22;3864;48.180;14.178;2022-07-29T15:01:56;34.30;85.80
7646;DHT22;3864;48.180;14.178;2022-07-29T15:04:23;34.30;84.80
7646;DHT22;3864;48.180;14.178;2022-07-29T15:06:50;34.20;84.60
7646;DHT22;3864;48.180;14.178;2022-07-29T15:09:19;34.30;85.30
7646;DHT22;3864;48.180;14.178;2022-07-29T15:11:47;34.60;84.90
7646;DHT22;3864;48.180;14.178;2022-07-29T15:14:14;34.60;81.30
7646;DHT22;3864;48.180;14.178;2022-07-29T15:16:42;34.70;83.30
7646;DHT22;3864;48.180;14.178;2022-07-29T15:19:09;34.50;82.20
7646;DHT22;3864;48.180;14.178;2022-07-29T15:21:37;34.50;84.10
7646;DHT22;3864;48.180;14.178;2022-07-29T15:24:04;34.70;83.90
7646;DHT22;3864;48.180;14.178;2022-07-29T15:26:34;34.50;79.40
7646;DHT22;3864;48.180;14.178;2022-07-29T15:29:01;34.40;84.30
7646;DHT22;3864;48.180;14.178;2022-07-29T15:31:28;34.00;82.90
7646;DHT22;3864;48.180;14.178;2022-07-29T15:33:56;34.00;86.90
7646;DHT22;3864;48.180;14.178;2022-07-29T15:36:23;34.20;85.60
7646;DHT22;3864;48.180;14.178;2022-07-29T15:38:52;34.60;81.60
7646;DHT22;3864;48.180;14.178;2022-07-29T15:41:20;34.40;80.80
7646;DHT22;3864;48.180;14.178;2022-07-29T15:43:50;34.20;86.00
7646;DHT22;3864;48.180;14.178;2022-07-29T15:46:18;33.90;82.00
7646;DHT22;3864;48.180;14.178;2022-07-29T15:49:04;33.80;87.80
7646;DHT22;3864;48.180;14.178;2022-07-29T15:51:33;34.10;82.90
7646;DHT22;3864;48.180;14.178;2022-07-29T15:54:01;34.00;86.30
7646;DHT22;3864;48.180;14.178;2022-07-29T15:56:29;34.00;88.10
7646;DHT22;3864;48.180;14.178;2022-07-29T15:58:58;34.30;87.20
7646;DHT22;3864;48.180;14.178;2022-07-29T16:01:25;34.30;87.70
7646;DHT22;3864;48.180;14.178;2022-07-29T16:03:52;34.10;83.60
7646;DHT22;3864;48.180;14.178;2022-07-29T16:06:20;34.00;84.30
7646;DHT22;3864;48.180;14.178;2022-07-29T16:08:48;33.80;87.20
7646;DHT22;3864;48.180;14.178;2022-07-29T16:11:15;33.70;87.90